Time;durP1;ratioP1;P1;durP2;ratioP2;P2;SDS_P1;SDS_P2;PMS_P1;PMS_P2;Temp;Humidity;BMP_temperature;BMP_pressure;BME280_temperature;BME280_humidity;BME280_pressure;Samples;Min_cycle;Max_cycle;Signal;HPM_P1;HPM_P2
2021/05/11 00:01:00;;;;;;;9.00;3.77;;;;;;;10.13;49.42;100976.12;1780814;79;21407;-67
2021/05/11 00:03:27;;;;;;;7.30;3.50;;;;;;;10.12;49.84;100973.05;1780814;80;21061;-68
2021/05/11 00:05:55;;;;;;;7.42;3.50;;;;;;;10.09;50.34;100969.30;1780736;80;21058;-67
2021/05/11 00:08:22;;;;;;;7.42;3.62;;;;;;;10.06;50.57;100966.41;1780811;80;21034;-68
2021/05/11 00:10:53;;;;;;;9.60;3.80;;;;;;;10.07;50.54;100969.99;1780874;80;21036;-68
2021/05/11 00:13:20;;;;;;;6.10;3.47;;;;;;;10.09;50.60;100966.56;1780816;80;21761;-67
2021/05/11 00:15:50;;;;;;;8.43;3.30;;;;;;;10.09;50.55;100974.26;1780653;80;21035;-67
2021/05/11 00:18:17;;;;;;;8.13;3.35;;;;;;;10.08;49.87;100964.34;1780790;80;21382;-67
2021/05/11 00:20:45;;;;;;;8.08;3.22;;;;;;;10.03;49.56;100965.91;1780895;80;21308;-67
2021/05/11 00:23:14;;;;;;;8.20;3.45;;;;;;;10.01;49.79;100953.77;1780915;80;21051;-68
2021/05/11 00:25:42;;;;;;;8.35;3.33;;;;;;;10.01;49.87;100949.67;1780749;80;21148;-68
2021/05/11 00:28:09;;;;;;;4.97;3.05;;;;;;;10.04;50.25;100941.09;1780803;80;21468;-68
2021/05/11 00:30:36;;;;;;;10.80;3.37;;;;;;;10.07;50.29;100939.88;1780718;80;21054;-67
2021/05/11 00:33:04;;;;;;;6.45;3.22;;;;;;;10.02;50.07;100943.16;1780803;80;21286;-68
2021/05/11 00:35:32;;;;;;;8.18;3.42;;;;;;;9.96;49.91;100943.03;1780903;80;21022;-69
2021/05/11 00:37:59;;;;;;;9.43;4.03;;;;;;;9.88;50.10;100943.08;1780689;80;21042;-68
2021/05/11 00:40:27;;;;;;;7.10;3.45;;;;;;;9.80;50.46;100944.83;1780842;80;21176;-69
2021/05/11 00:42:54;;;;;;;7.95;3.70;;;;;;;9.76;50.70;100942.63;1780880;80;21049;-68
2021/05/11 00:45:21;;;;;;;8.03;3.70;;;;;;;9.75;50.93;100943.63;1780878;80;21062;-68
2021/05/11 00:47:49;;;;;;;10.98;3.70;;;;;;;9.79;51.10;100937.65;1780874;80;21053;-67
2021/05/11 00:50:17;;;;;;;6.72;3.60;;;;;;;9.81;51.12;100936.95;1780880;80;21066;-67
2021/05/11 00:52:44;;;;;;;8.68;3.58;;;;;;;9.81;51.12;100936.95;1780815;80;21070;-68
2021/05/11 00:55:11;;;;;;;9.58;4.20;;;;;;;9.79;50.98;100940.39;1758935;80;21339;-68
2021/05/11 00:57:39;;;;;;;10.55;4.37;;;;;;;9.75;51.04;100932.69;1780863;80;21301;-68
2021/05/11 01:00:09;;;;;;;13.38;4.92;;;;;;;9.72;51.08;100933.89;1781004;79;21348;-67
2021/05/11 01:02:36;;;;;;;10.10;4.58;;;;;;;9.74;51.05;100928.24;1780994;80;21780;-71
2021/05/11 01:05:05;;;;;;;10.60;4.30;;;;;;;9.74;51.11;100933.72;1773940;80;21329;-68
2021/05/11 01:07:32;;;;;;;8.58;4.17;;;;;;;9.77;51.32;100929.28;1766715;81;21764;-67
2021/05/11 01:10:00;;;;;;;8.23;4.37;;;;;;;9.81;51.42;100923.27;1766632;81;21161;-67
2021/05/11 01:12:27;;;;;;;13.43;4.17;;;;;;;9.83;51.47;100923.94;1766700;80;21198;-67
2021/05/11 01:14:56;;;;;;;12.05;4.80;;;;;;;9.82;51.57;100919.50;1766580;81;21054;-67
2021/05/11 01:17:35;;;;;;;9.28;4.42;;;;;;;9.84;51.35;100924.80;1766646;81;21090;-67
2021/05/11 01:20:00;;;;;;;8.93;4.25;;;;;;;9.84;50.96;100927.53;1765205;81;21050;-67
2021/05/11 01:22:45;;;;;;;9.93;4.83;;;;;;;9.79;50.71;100923.97;1766458;81;21254;-67
2021/05/11 01:25:12;;;;;;;7.60;4.30;;;;;;;9.77;50.47;100926.03;1765100;81;21062;-67
2021/05/11 01:46:57;;;;;;;13.83;7.75;;;;;;;9.48;51.74;100910.25;1766630;81;21155;-68
2021/05/11 01:49:16;;;;;;;15.55;7.80;;;;;;;9.45;51.86;100916.08;1762804;81;21098;-68
2021/05/11 01:52:18;;;;;;;10.45;6.28;;;;;;;9.47;51.89;100920.00;1765777;81;21278;-67
2021/05/11 01:57:34;;;;;;;9.80;5.60;;;;;;;9.53;52.02;100929.72;1766702;81;21348;-67
2021/05/11 02:23:56;;;;;;;7.65;4.20;;;;;;;9.71;53.30;100922.61;1766607;81;21270;-67
2021/05/11 02:26:23;;;;;;;10.80;3.17;;;;;;;9.69;53.70;100924.67;1766592;81;21081;-69
2021/05/11 02:28:50;;;;;;;7.42;3.42;;;;;;;9.68;53.97;100927.08;1766603;81;21307;-67
2021/05/11 02:31:18;;;;;;;6.62;2.92;;;;;;;9.68;53.72;100922.97;1766690;81;21039;-67
2021/05/11 02:33:45;;;;;;;5.22;3.20;;;;;;;9.72;53.81;100927.57;1766596;81;21050;-67
2021/05/11 02:36:14;;;;;;;7.58;3.20;;;;;;;9.76;54.06;100921.59;1766610;81;21059;-67
2021/05/11 02:38:41;;;;;;;5.85;3.35;;;;;;;9.76;54.15;100921.59;1766666;80;21056;-67
2021/05/11 02:41:09;;;;;;;5.62;2.90;;;;;;;9.77;54.18;100925.18;1766614;81;21333;-67
2021/05/11 02:43:38;;;;;;;6.72;3.25;;;;;;;9.73;54.08;100921.92;1766635;81;21086;-67
2021/05/11 02:46:05;;;;;;;7.47;3.33;;;;;;;9.72;54.07;100921.58;1766605;80;21034;-67
2021/05/11 02:48:33;;;;;;;6.15;3.02;;;;;;;9.76;54.03;100921.59;1766623;81;21054;-67
2021/05/11 02:51:00;;;;;;;5.20;2.77;;;;;;;9.82;53.92;100924.13;1767357;81;21348;-67
2021/05/11 02:53:28;;;;;;;5.42;3.02;;;;;;;9.86;53.77;100919.99;1766712;80;21038;-67
2021/05/11 02:55:56;;;;;;;7.95;3.10;;;;;;;9.93;53.64;100918.75;1766551;81;21306;-67
2021/05/11 02:58:23;;;;;;;7.03;3.30;;;;;;;9.95;53.43;100913.95;1766611;81;21218;-68
2021/05/11 03:00:51;;;;;;;5.58;3.17;;;;;;;10.01;53.17;100909.12;1766514;80;21323;-68
2021/05/11 03:03:18;;;;;;;6.12;3.27;;;;;;;10.07;52.90;100912.50;1766602;81;21281;-67
2021/05/11 03:05:46;;;;;;;5.70;3.15;;;;;;;10.15;52.71;100907.81;1766612;80;21292;-67
2021/05/11 03:08:14;;;;;;;8.28;3.33;;;;;;;10.20;52.67;100911.41;1766635;81;21082;-67
2021/05/11 03:10:43;;;;;;;10.55;3.42;;;;;;;10.24;52.68;100912.74;1766598;81;21008;-67
2021/05/11 03:13:10;;;;;;;6.78;2.92;;;;;;;10.30;52.46;100912.01;1766643;81;21073;-67
2021/05/11 03:15:38;;;;;;;6.75;3.27;;;;;;;10.37;52.09;100908.02;1766604;81;21280;-68
2021/05/11 03:18:05;;;;;;;6.60;2.85;;;;;;;10.48;51.74;100911.72;1766519;81;21062;-68
2021/05/11 03:20:33;;;;;;;8.93;3.20;;;;;;;10.58;50.99;100910.09;1766736;81;21079;-68
2021/05/11 03:23:01;;;;;;;6.55;3.10;;;;;;;10.67;50.60;100911.72;1766559;80;21011;-68
2021/05/11 03:25:29;;;;;;;9.48;3.35;;;;;;;10.73;50.32;100909.60;1766603;81;21066;-68
2021/05/11 03:27:59;;;;;;;5.75;2.98;;;;;;;10.76;49.78;100903.23;1766719;81;21038;-68
2021/05/11 03:30:26;;;;;;;10.40;3.15;;;;;;;10.85;49.25;100910.84;1766597;81;21086;-68
2021/05/11 03:32:55;;;;;;;6.67;3.37;;;;;;;10.90;49.13;100904.80;1766730;81;21824;-68
2021/05/11 03:35:23;;;;;;;4.37;3.02;;;;;;;10.91;49.05;100905.98;1766734;81;21280;-68
2021/05/11 03:37:52;;;;;;;7.65;3.08;;;;;;;10.93;48.94;100909.39;1766553;81;21039;-68
2021/05/11 03:40:20;;;;;;;6.12;2.75;;;;;;;10.95;48.50;100908.69;1766806;81;21188;-69
2021/05/11 03:43:37;;;;;;;6.55;3.15;;;;;;;10.98;48.18;100905.56;1766569;81;21321;-68
2021/05/11 03:45:17;;;;;;;6.83;3.20;;;;;;;11.00;47.93;100898.52;1727670;81;21371;-67
2021/05/11 03:47:47;;;;;;;7.05;3.02;;;;;;;11.05;47.48;100891.95;1766825;81;21273;-68
2021/05/11 03:50:15;;;;;;;6.78;3.20;;;;;;;11.13;46.94;100904.23;1766777;81;21407;-68
2021/05/11 03:52:43;;;;;;;6.25;2.90;;;;;;;11.18;46.65;100903.14;1766641;81;21050;-68
2021/05/11 03:55:11;;;;;;;8.73;2.80;;;;;;;11.25;46.40;100895.01;1766566;81;21273;-68
2021/05/11 03:57:39;;;;;;;6.65;2.95;;;;;;;11.28;46.23;100896.00;1766258;81;21054;-68
2021/05/11 04:00:07;;;;;;;7.30;3.35;;;;;;;11.31;45.72;100903.33;1765631;80;21149;-68
2021/05/11 04:02:35;;;;;;;6.53;2.55;;;;;;;11.34;44.98;100895.23;1765735;81;21331;-68
2021/05/11 04:05:08;;;;;;;5.87;2.80;;;;;;;11.40;44.68;100904.08;1766820;80;21289;-68
2021/05/11 04:07:34;;;;;;;5.05;2.45;;;;;;;11.46;44.54;100908.80;1784785;80;21011;-68
2021/05/11 04:10:08;;;;;;;5.97;2.50;;;;;;;11.52;43.95;100907.19;1784930;80;21049;-68
2021/05/11 04:17:54;;;;;;;6.47;2.50;;;;;;;11.68;42.36;100911.94;1784323;80;21101;-68
2021/05/11 04:20:21;;;;;;;5.75;2.80;;;;;;;11.74;42.13;100911.72;1784357;80;21717;-68
2021/05/11 04:22:49;;;;;;;5.92;2.70;;;;;;;11.78;41.57;100913.06;1784101;80;21340;-69
2021/05/11 04:25:16;;;;;;;5.05;2.52;;;;;;;11.81;41.59;100914.58;1784141;80;21262;-68
2021/05/11 04:27:44;;;;;;;5.50;2.77;;;;;;;11.84;41.07;100919.16;1784082;80;21339;-69
2021/05/11 04:30:12;;;;;;;3.72;2.10;;;;;;;11.86;41.07;100910.20;1784078;80;21293;-68
2021/05/11 04:32:40;;;;;;;6.42;2.60;;;;;;;11.92;40.83;100913.55;1784200;80;21277;-69
2021/05/11 04:35:08;;;;;;;7.47;2.92;;;;;;;11.96;40.69;100914.01;1783967;80;21640;-69
2021/05/11 04:37:36;;;;;;;5.00;2.40;;;;;;;11.99;40.72;100910.88;1784022;80;21282;-69
2021/05/11 04:40:04;;;;;;;4.12;2.10;;;;;;;12.04;40.27;100908.39;1783921;80;21291;-69
2021/05/11 04:42:33;;;;;;;5.20;2.37;;;;;;;12.09;39.96;100907.28;1783719;80;21057;-69
2021/05/11 04:45:01;;;;;;;5.67;2.60;;;;;;;12.14;39.85;100902.05;1783470;80;21081;-67
2021/05/11 04:47:45;;;;;;;3.40;2.17;;;;;;;12.20;39.58;100893.55;1783492;80;21050;-68
2021/05/11 04:49:58;;;;;;;5.25;2.58;;;;;;;12.25;39.03;100894.66;1780214;80;21192;-68
2021/05/11 04:52:26;;;;;;;3.52;2.30;;;;;;;12.32;38.90;100902.44;1783490;80;21073;-68
2021/05/11 04:54:54;;;;;;;4.22;2.20;;;;;;;12.37;38.63;100897.23;1783142;80;21061;-68
2021/05/11 04:57:21;;;;;;;6.20;2.30;;;;;;;12.42;38.35;100893.89;1782534;80;21789;-67
2021/05/11 04:59:49;;;;;;;6.28;2.20;;;;;;;12.47;38.16;100889.18;1782209;78;21412;-67
2021/05/11 05:02:16;;;;;;;3.55;2.10;;;;;;;12.51;37.85;100898.73;1782230;80;21309;-68
2021/05/11 05:04:43;;;;;;;6.03;2.40;;;;;;;12.55;37.74;100895.39;1781994;80;21870;-68
2021/05/11 05:07:11;;;;;;;4.20;2.27;;;;;;;12.59;37.72;100888.97;1777526;80;21332;-69
2021/05/11 05:09:38;;;;;;;4.58;2.05;;;;;;;12.62;37.65;100890.80;1777307;80;21301;-72
2021/05/11 05:12:07;;;;;;;5.55;2.17;;;;;;;12.65;37.54;100884.89;1780303;80;21283;-68
2021/05/11 05:14:34;;;;;;;10.38;2.72;;;;;;;12.69;37.49;100898.56;1780757;80;21801;-69
2021/05/11 05:17:02;;;;;;;5.05;2.72;;;;;;;12.73;37.32;100891.30;1780645;80;21055;-69
2021/05/11 05:19:29;;;;;;;9.00;2.50;;;;;;;12.77;37.33;100896.20;1780633;80;21034;-69
2021/05/11 05:21:57;;;;;;;9.33;2.60;;;;;;;12.81;36.97;100886.49;1780650;80;21031;-69
2021/05/11 05:24:29;;;;;;;6.15;2.15;;;;;;;12.84;37.01;100888.84;1780735;80;21261;-67
2021/05/11 05:26:55;;;;;;;7.10;4.40;;;;;;;12.88;36.88;100888.77;1780350;80;21050;-69
2021/05/11 05:29:23;;;;;;;5.00;2.17;;;;;;;12.92;36.63;100888.69;1780909;80;21293;-69
2021/05/11 05:31:50;;;;;;;4.45;2.10;;;;;;;12.98;36.18;100882.91;1780885;80;21034;-67
2021/05/11 05:34:19;;;;;;;3.95;2.30;;;;;;;13.03;36.05;100883.70;1780709;80;21288;-68
2021/05/11 05:36:46;;;;;;;3.08;1.98;;;;;;;13.07;36.05;100879.50;1782366;80;21193;-68
2021/05/11 05:39:14;;;;;;;3.27;2.10;;;;;;;13.11;36.02;100871.17;1780602;80;21077;-69
2021/05/11 05:41:41;;;;;;;6.25;2.25;;;;;;;13.16;35.99;100872.25;1780428;80;21320;-68
2021/05/11 05:44:09;;;;;;;5.87;2.47;;;;;;;13.22;35.82;100863.22;1780521;80;21176;-69
2021/05/11 05:46:36;;;;;;;6.03;2.98;;;;;;;13.29;35.71;100866.00;1780812;80;21045;-69
2021/05/11 05:49:05;;;;;;;5.45;2.30;;;;;;;13.36;35.12;100861.38;1780977;80;21077;-69
2021/05/11 05:51:33;;;;;;;3.80;1.90;;;;;;;13.43;34.84;100861.41;1780837;80;21081;-68
2021/05/11 05:54:00;;;;;;;6.60;1.98;;;;;;;13.50;34.80;100863.13;1780831;80;21299;-69
2021/05/11 05:56:28;;;;;;;5.60;1.85;;;;;;;13.56;34.61;100862.31;1780745;80;21360;-69
2021/05/11 05:58:56;;;;;;;5.35;1.80;;;;;;;13.62;34.42;100862.86;1780763;80;21197;-70
2021/05/11 06:01:28;;;;;;;4.10;2.22;;;;;;;13.70;33.90;100859.64;1782847;79;21113;-69
2021/05/11 06:04:08;;;;;;;7.20;2.00;;;;;;;13.78;34.27;100855.31;1780113;80;21387;-67
2021/05/11 06:06:35;;;;;;;3.42;1.90;;;;;;;13.86;34.60;100853.22;1775023;80;21048;-69
2021/05/11 06:09:06;;;;;;;7.03;1.98;;;;;;;13.94;34.58;100846.67;1766804;81;21069;-68
2021/05/11 06:11:49;;;;;;;4.85;2.10;;;;;;;14.03;34.31;100853.68;1766631;81;21301;-68
2021/05/11 06:19:27;;;;;;;4.05;1.90;;;;;;;14.27;33.12;100857.20;1766731;81;21313;-68
2021/05/11 06:21:56;;;;;;;5.03;1.57;;;;;;;14.36;32.50;100859.78;1739220;81;21112;-69
2021/05/11 06:24:24;;;;;;;3.95;1.95;;;;;;;14.42;32.59;100863.08;1766545;81;21035;-69
2021/05/11 06:26:51;;;;;;;3.92;1.80;;;;;;;14.50;32.30;100856.85;1766615;81;21138;-68
2021/05/11 06:29:24;;;;;;;4.40;1.77;;;;;;;14.59;32.11;100862.47;1766547;81;21075;-69
2021/05/11 06:31:51;;;;;;;2.62;1.45;;;;;;;14.70;32.04;100860.98;1766551;81;21046;-68
2021/05/11 06:34:18;;;;;;;3.77;1.80;;;;;;;14.80;31.82;100857.78;1766810;81;21035;-68
2021/05/11 06:36:46;;;;;;;6.87;1.72;;;;;;;14.92;31.98;100858.83;1766608;81;21089;-69
2021/05/11 06:39:15;;;;;;;3.75;2.00;;;;;;;15.05;31.74;100857.98;1766555;81;21460;-69
2021/05/11 06:41:49;;;;;;;2.77;1.47;;;;;;;15.17;31.29;100856.25;1766638;81;21348;-69
2021/05/11 06:44:25;;;;;;;5.37;1.80;;;;;;;15.29;31.64;100848.14;1766688;80;21065;-67
2021/05/11 06:54:43;;;;;;;5.17;1.72;;;;;;;15.81;31.76;100844.35;1766636;81;21051;-69
2021/05/11 06:57:10;;;;;;;5.20;1.90;;;;;;;15.90;31.53;100847.17;1766490;81;21068;-70
2021/05/11 06:59:38;;;;;;;5.62;1.95;;;;;;;15.99;31.66;100854.13;1768619;80;21582;-67
2021/05/11 07:02:05;;;;;;;4.05;2.05;;;;;;;16.08;31.68;100842.27;1766521;81;21043;-68
2021/05/11 07:04:32;;;;;;;3.98;1.85;;;;;;;16.18;31.99;100846.23;1766536;81;21157;-69
2021/05/11 07:07:00;;;;;;;3.75;1.90;;;;;;;16.29;31.95;100838.32;1766533;80;21108;-69
2021/05/11 07:09:52;;;;;;;6.00;2.10;;;;;;;16.39;31.83;100841.42;1763399;81;21756;-68
2021/05/11 07:14:33;;;;;;;3.98;1.80;;;;;;;16.59;31.65;100842.11;1766647;81;21158;-68
2021/05/11 07:17:01;;;;;;;4.35;1.80;;;;;;;16.69;31.59;100843.01;1766504;81;21055;-68
2021/05/11 07:19:29;;;;;;;3.62;1.70;;;;;;;16.78;31.32;100835.57;1766780;81;21074;-69
2021/05/11 07:21:56;;;;;;;5.70;1.90;;;;;;;16.89;31.37;100835.36;1759438;81;21046;-69
2021/05/11 07:24:27;;;;;;;9.30;1.82;;;;;;;17.00;31.04;100836.55;1732126;81;21587;-69
2021/05/11 07:32:02;;;;;;;5.08;1.57;;;;;;;17.29;29.95;100831.63;1719075;82;21298;-68
2021/05/11 07:34:30;;;;;;;3.40;2.02;;;;;;;17.39;29.16;100826.94;1719120;83;21230;-69
2021/05/11 07:37:00;;;;;;;2.70;1.72;;;;;;;17.47;29.30;100817.46;1718855;82;21092;-68
2021/05/11 07:39:27;;;;;;;3.62;1.57;;;;;;;17.55;29.39;100825.45;1719069;82;21303;-68
2021/05/11 07:41:54;;;;;;;3.22;2.10;;;;;;;17.63;29.26;100819.63;1718964;82;21437;-68
2021/05/11 07:44:22;;;;;;;3.27;2.00;;;;;;;17.71;29.15;100819.33;1719014;82;21056;-68
2021/05/11 07:47:10;;;;;;;6.62;2.40;;;;;;;17.84;28.79;100814.13;1719072;82;21283;-68
2021/05/11 07:49:56;;;;;;;8.28;2.75;;;;;;;17.97;28.15;100804.23;1717496;83;21076;-68
2021/05/11 08:03:12;;;;;;;4.10;1.82;;;;;;;18.43;27.13;100771.60;1719091;83;21277;-72
2021/05/11 08:14:25;;;;;;;3.27;1.57;;;;;;;18.71;26.21;100773.69;1769777;79;21257;-73
2021/05/11 08:16:14;;;;;;;2.75;1.60;;;;;;;18.84;26.26;100783.69;1720952;82;21765;-66
2021/05/11 08:19:02;;;;;;;3.87;1.90;;;;;;;18.95;25.93;100782.32;1769343;79;21075;-72
2021/05/11 08:29:31;;;;;;;4.50;1.80;;;;;;;19.26;25.02;100772.72;1769985;81;21301;-70
2021/05/11 08:31:58;;;;;;;4.28;2.00;;;;;;;19.31;25.11;100765.87;1756390;81;21811;-68
2021/05/11 08:34:26;;;;;;;2.30;1.45;;;;;;;19.35;25.28;100771.78;1758449;79;21073;-66
2021/05/11 08:36:54;;;;;;;4.05;1.77;;;;;;;19.42;25.05;100756.35;1697420;84;21339;-68
2021/05/11 08:39:25;;;;;;;4.15;1.52;;;;;;;19.47;25.18;100762.86;1765157;81;21062;-68
2021/05/11 08:41:53;;;;;;;4.20;1.70;;;;;;;19.53;24.88;100756.91;1747829;79;21036;-68
2021/05/11 08:44:20;;;;;;;2.72;1.80;;;;;;;19.55;25.10;100763.91;1766246;81;21304;-77
2021/05/11 08:46:47;;;;;;;4.83;2.10;;;;;;;19.61;25.33;100765.70;1750869;81;21167;-77
2021/05/11 08:49:16;;;;;;;4.25;1.95;;;;;;;19.68;25.44;100756.37;1766267;79;21362;-79
2021/05/11 08:51:57;;;;;;;7.83;1.70;;;;;;;19.74;25.41;100758.99;1695020;82;21073;-78
2021/05/11 09:27:21;;;;;;;4.28;2.17;;;;;;;20.71;25.67;100702.19;1770767;80;21481;-67
2021/05/11 10:47:00;;;;;;;2.50;1.80;;;;;;;23.03;24.61;100618.16;1707770;84;21195;-68
2021/05/11 10:49:37;;;;;;;4.22;1.72;;;;;;;23.02;24.80;100608.93;1725734;82;21050;-68
2021/05/11 10:52:25;;;;;;;4.20;2.12;;;;;;;23.08;24.78;100604.19;1734321;82;21051;-69
2021/05/11 10:55:00;;;;;;;3.83;1.60;;;;;;;23.22;24.85;100606.73;1700487;82;21069;-70
2021/05/11 10:57:44;;;;;;;4.03;1.75;;;;;;;23.32;24.71;100608.71;1728234;82;21779;-65
2021/05/11 11:00:31;;;;;;;3.90;1.60;;;;;;;23.42;24.55;100610.16;1717516;82;21390;-71
2021/05/11 11:03:26;;;;;;;2.98;1.60;;;;;;;23.49;24.42;100609.89;1698806;82;21368;-68
2021/05/11 11:05:57;;;;;;;4.15;2.17;;;;;;;23.52;24.38;100600.38;1711326;82;21792;-71
2021/05/11 11:08:39;;;;;;;3.30;2.00;;;;;;;23.58;24.35;100602.09;1697440;82;21060;-71
2021/05/11 11:11:21;;;;;;;2.70;2.02;;;;;;;23.68;24.33;100602.09;1691861;84;21237;-68
2021/05/11 11:13:52;;;;;;;4.20;1.77;;;;;;;23.83;24.40;100601.81;1729821;81;21192;-68
2021/05/11 11:16:21;;;;;;;3.62;1.55;;;;;;;23.99;23.99;100597.88;1697446;82;21078;-68
2021/05/11 11:18:49;;;;;;;5.22;1.90;;;;;;;24.07;23.83;100600.13;1716922;81;21118;-68
2021/05/11 11:21:23;;;;;;;4.50;1.80;;;;;;;24.12;23.84;100593.13;1722555;83;21140;-68
2021/05/11 11:23:55;;;;;;;4.17;2.15;;;;;;;24.20;23.92;100595.34;1713566;83;21078;-67
2021/05/11 11:26:31;;;;;;;3.58;1.77;;;;;;;24.32;23.86;100591.70;1715837;82;21311;-66
2021/05/11 11:29:05;;;;;;;2.40;1.40;;;;;;;24.41;23.80;100586.36;1719097;83;21758;-65
2021/05/11 11:31:34;;;;;;;3.05;1.45;;;;;;;24.48;23.72;100579.05;1728492;83;21312;-69
2021/05/11 11:34:33;;;;;;;2.17;1.40;;;;;;;24.47;23.77;100567.56;1717573;82;21071;-66
2021/05/11 11:37:11;;;;;;;3.55;1.50;;;;;;;24.50;23.90;100568.40;1711855;82;21108;-71
2021/05/11 11:39:46;;;;;;;2.72;1.55;;;;;;;24.64;24.04;100558.25;1701331;82;21170;-67
2021/05/11 11:42:30;;;;;;;3.95;2.02;;;;;;;24.80;23.52;100555.67;1756809;81;21275;-65
2021/05/11 11:44:59;;;;;;;6.05;2.05;;;;;;;24.89;23.78;100548.90;1711767;83;21699;-69
2021/05/11 11:47:29;;;;;;;6.15;2.10;;;;;;;25.00;23.68;100554.75;1722137;82;21644;-72
2021/05/11 11:50:04;;;;;;;5.45;1.70;;;;;;;25.08;23.61;100549.09;1703799;84;21325;-71
2021/05/11 11:53:00;;;;;;;4.45;1.32;;;;;;;25.11;23.66;100545.14;1702207;83;21313;-63
2021/05/11 11:57:55;;;;;;;3.92;1.50;;;;;;;25.27;23.71;100546.71;1673027;82;21365;-71
2021/05/11 12:00:33;;;;;;;3.22;1.60;;;;;;;25.35;23.74;100536.83;1708986;82;21884;-73
2021/05/11 12:03:13;;;;;;;2.25;1.32;;;;;;;25.48;23.69;100540.97;1711422;82;21719;-71
2021/05/11 12:05:53;;;;;;;3.17;1.60;;;;;;;25.62;23.33;100543.37;1695369;82;21338;-71
2021/05/11 12:08:26;;;;;;;3.77;1.60;;;;;;;25.71;23.41;100538.83;1715087;81;21741;-66
2021/05/11 12:11:02;;;;;;;3.98;1.65;;;;;;;25.82;23.12;100539.56;1725741;82;21288;-68
2021/05/11 12:13:39;;;;;;;4.87;1.80;;;;;;;25.90;23.15;100543.97;1727690;82;21076;-66
2021/05/11 12:16:27;;;;;;;4.25;1.80;;;;;;;25.93;23.20;100538.33;1697648;83;21702;-70
2021/05/11 12:19:09;;;;;;;3.98;1.70;;;;;;;25.99;23.26;100533.50;1691417;82;21318;-68
2021/05/11 12:22:06;;;;;;;5.05;1.80;;;;;;;26.02;23.16;100523.10;1719937;82;21349;-66
2021/05/11 12:24:40;;;;;;;3.60;1.92;;;;;;;25.99;23.22;100523.66;1701957;82;21196;-69
2021/05/11 12:27:19;;;;;;;4.87;1.90;;;;;;;25.99;23.16;100523.09;1718461;82;21026;-72
2021/05/11 12:30:11;;;;;;;5.67;2.02;;;;;;;26.00;23.37;100524.77;1710998;82;21060;-69
2021/05/11 12:32:39;;;;;;;4.28;1.77;;;;;;;26.08;23.38;100515.73;1709649;82;21733;-72
2021/05/11 12:35:14;;;;;;;4.45;1.60;;;;;;;26.28;23.44;100520.84;1727879;82;21783;-68
2021/05/11 12:37:51;;;;;;;2.37;1.30;;;;;;;26.49;23.21;100508.23;1720523;82;21468;-68
2021/05/11 12:40:30;;;;;;;;;;;;;;;26.64;22.86;100503.81;1719799;83;21772;-69
2021/05/11 12:43:01;;;;;;;3.45;1.60;;;;;;;26.76;22.56;100509.02;1736520;81;20222;-67
2021/05/11 12:45:35;;;;;;;8.88;2.05;;;;;;;26.70;22.91;100507.42;1752549;81;21175;-77
2021/05/11 12:48:02;;;;;;;1.50;1.15;;;;;;;26.79;22.75;100509.25;1726231;81;21040;-69
2021/05/11 12:50:39;;;;;;;3.37;1.60;;;;;;;26.80;22.25;100503.89;1731169;81;21321;-67
2021/05/11 12:53:41;;;;;;;1.80;1.20;;;;;;;26.69;22.44;100494.50;1717221;83;21815;-66
2021/05/11 12:56:22;;;;;;;2.60;1.40;;;;;;;26.71;22.47;100498.69;1739734;82;21295;-66
2021/05/11 13:01:36;;;;;;;6.12;1.45;;;;;;;26.78;22.59;100486.49;1731552;81;21103;-70
2021/05/11 13:13:36;;;;;;;3.20;1.20;;;;;;;27.26;22.19;100474.23;1680163;84;21380;-69
2021/05/11 13:28:30;;;;;;;2.67;1.50;;;;;;;27.84;21.64;100446.48;1766863;80;21077;-69
2021/05/11 13:31:05;;;;;;;5.40;2.00;;;;;;;27.94;21.74;100456.72;1766861;79;21023;-71
2021/05/11 13:33:49;;;;;;;3.30;1.65;;;;;;;28.07;21.57;100440.42;1753280;81;21743;-72
2021/05/11 13:36:12;;;;;;;3.77;1.40;;;;;;;28.17;21.47;100440.78;1763200;80;21078;-66
2021/05/11 13:38:40;;;;;;;5.15;1.80;;;;;;;28.28;21.35;100442.27;1733893;81;21067;-66
2021/05/11 13:41:08;;;;;;;2.92;1.55;;;;;;;28.33;21.41;100433.13;1711402;83;21890;-65
2021/05/11 13:43:35;;;;;;;2.33;1.40;;;;;;;28.51;21.48;100434.70;1681362;82;21178;-67
2021/05/11 13:46:03;;;;;;;6.80;1.40;;;;;;;28.79;21.06;100429.85;1725500;83;21424;-66
2021/05/11 13:48:36;;;;;;;2.47;1.35;;;;;;;28.99;21.05;100433.62;1750367;81;21346;-67
2021/05/11 13:51:18;;;;;;;4.97;1.20;;;;;;;29.19;20.44;100433.10;1802572;79;21199;-70
2021/05/11 13:53:47;;;;;;;2.52;1.50;;;;;;;29.27;20.30;100432.36;1769040;79;21286;-65
2021/05/11 14:04:02;;;;;;;3.67;1.40;;;;;;;29.70;20.16;100428.98;1771004;79;21858;-70
2021/05/11 14:06:30;;;;;;;4.08;1.37;;;;;;;29.76;19.73;100424.85;1764536;81;21391;-70
2021/05/11 14:08:57;;;;;;;3.67;1.40;;;;;;;29.76;19.73;100424.85;1770332;80;21165;-69
2021/05/11 14:11:27;;;;;;;3.85;1.50;;;;;;;29.63;19.76;100430.02;1780432;79;21380;-70
2021/05/11 14:13:54;;;;;;;3.92;2.15;;;;;;;29.62;19.89;100429.77;1742003;82;21053;-69
2021/05/11 14:16:22;;;;;;;2.27;1.30;;;;;;;29.74;19.84;100431.98;1721588;82;21092;-69
2021/05/11 14:18:49;;;;;;;3.83;1.40;;;;;;;29.89;19.79;100421.66;1746213;82;21332;-70
2021/05/11 14:21:17;;;;;;;3.50;1.70;;;;;;;30.12;19.80;100418.23;1728169;82;21043;-69
2021/05/11 14:23:44;;;;;;;7.47;1.70;;;;;;;30.10;19.65;100423.37;1742571;81;21771;-68
2021/05/11 14:26:12;;;;;;;4.08;1.60;;;;;;;30.37;19.53;100420.86;1704778;82;21285;-71
2021/05/11 14:28:40;;;;;;;6.42;1.87;;;;;;;30.37;19.53;100420.86;1718799;81;21103;-68
2021/05/11 14:31:07;;;;;;;4.67;1.95;;;;;;;30.59;19.35;100420.80;1725800;83;21377;-66
2021/05/11 14:33:35;;;;;;;4.12;1.50;;;;;;;30.83;19.10;100418.89;1708848;81;21847;-66
2021/05/11 14:36:04;;;;;;;3.85;1.87;;;;;;;31.00;18.77;100416.05;1711710;83;21175;-67
2021/05/11 14:38:31;;;;;;;6.78;2.02;;;;;;;31.07;18.72;100412.12;1693196;84;21186;-70
2021/05/11 14:41:03;;;;;;;4.83;1.80;;;;;;;31.08;18.78;100408.72;1714478;82;21079;-68
2021/05/11 14:43:32;;;;;;;2.60;1.47;;;;;;;31.16;18.84;100405.91;1708729;84;21417;-71
2021/05/11 14:46:02;;;;;;;2.65;1.30;;;;;;;31.33;18.76;100401.41;1716863;83;21748;-70
2021/05/11 14:48:30;;;;;;;3.77;1.30;;;;;;;31.40;18.70;100396.05;1709659;83;21275;-74
2021/05/11 14:50:58;;;;;;;5.00;1.52;;;;;;;31.48;18.66;100398.03;1726507;82;21098;-67
2021/05/11 14:53:26;;;;;;;3.75;1.50;;;;;;;31.60;18.68;100400.16;1710597;83;21042;-70
2021/05/11 14:55:53;;;;;;;7.10;2.20;;;;;;;31.70;18.46;100385.64;1698689;83;21769;-70
2021/05/11 14:58:23;;;;;;;4.85;1.57;;;;;;;31.80;18.53;100391.77;1724317;83;21059;-71
2021/05/11 15:00:50;;;;;;;4.25;1.60;;;;;;;31.91;18.22;100388.58;1723328;83;21936;-69
2021/05/11 15:03:18;;;;;;;4.80;1.60;;;;;;;31.88;18.16;100393.52;1698377;83;21301;-69
2021/05/11 15:05:46;;;;;;;8.53;1.92;;;;;;;31.82;18.29;100382.34;1725993;83;21250;-68
2021/05/11 15:08:13;;;;;;;5.70;1.77;;;;;;;31.87;18.36;100374.84;1725659;83;21070;-72
2021/05/11 15:10:43;;;;;;;7.22;1.80;;;;;;;32.02;18.22;100387.85;1718528;83;21834;-70
2021/05/11 15:13:10;;;;;;;5.40;1.62;;;;;;;32.14;18.23;100371.52;1715653;83;21643;-75
2021/05/11 15:15:41;;;;;;;6.42;1.87;;;;;;;32.36;18.03;100371.23;1718004;83;21553;-72
2021/05/11 15:18:13;;;;;;;5.37;1.50;;;;;;;32.61;18.00;100371.41;1717226;83;21136;-67
2021/05/11 15:21:03;;;;;;;6.33;1.95;;;;;;;32.96;17.74;100374.20;1715586;83;21810;-66
2021/05/11 15:23:48;;;;;;;6.90;1.87;;;;;;;33.29;17.55;100367.72;1664055;85;21803;-65
2021/05/11 15:26:18;;;;;;;8.65;2.08;;;;;;;33.77;17.13;100360.47;1663144;85;21456;-67
2021/05/11 15:28:48;;;;;;;3.50;1.77;;;;;;;34.20;17.07;100362.17;1686825;85;21337;-65
2021/05/11 15:31:16;;;;;;;9.53;1.95;;;;;;;34.58;16.76;100378.03;1693088;84;21111;-65
2021/05/11 15:33:43;;;;;;;7.20;3.12;;;;;;;34.95;16.55;100368.80;1697745;82;21412;-65
2021/05/11 15:36:11;;;;;;;6.08;1.85;;;;;;;35.29;16.04;100373.04;1702098;83;21092;-64
2021/05/11 15:38:38;;;;;;;7.08;1.77;;;;;;;35.51;16.07;100372.45;1705481;83;21110;-69
2021/05/11 15:41:06;;;;;;;7.05;2.37;;;;;;;35.76;15.73;100373.70;1687690;85;21643;-69
2021/05/11 15:43:35;;;;;;;7.40;1.90;;;;;;;35.85;15.82;100378.68;1702716;83;21115;-68
2021/05/11 15:46:02;;;;;;;7.97;1.95;;;;;;;35.95;15.77;100378.72;1716618;83;21068;-75